Osg Courageous — WDF7122 — position and weather

sailwx.info

Track history (hours):
 
Tides and Currents Weather Stations Pressure Air Temp Water Temp Dewpoint Dewpoint Depression Visibility Wind Speed Wind Dir Waves Ship Positions

Osg Courageous

Owner: OSG Ship Management, Inc, Tampa, FL. More information available from US FCC via Universal Licensing System and Coast Guard Vessel Documentation Center.

Last reported at 2014-Oct-23 19:33 UTC. Time now 2014-Oct-25 07:54 UTC.
Position N 29°22' W 094°49'.

Length 187 m; draft 7 m.

Type: Tanker. MMSI: 367481310.

Date/timePositionNaut miles runAvg speedWind from/ knotsBaromVisibWave heightAir tempDewpointWater temp
2014-Oct-23 19:33N 29°22' W 094°49'5 4.9
2014-Oct-23 18:29N 29°22' W 094°55'0 0.0
2014-Oct-23 17:31N 29°22' W 094°55'0 0.0
2014-Oct-23 16:26N 29°22' W 094°55'0 0.0
2014-Oct-23 15:32N 29°22' W 094°55'0 0.0
2014-Oct-22 08:33N 29°22' W 094°55'2 1.9
2014-Oct-22 07:28N 29°23' W 094°53'1210.8
2014-Oct-22 06:21N 29°20' W 094°40'3 3.7
2014-Oct-22 05:29N 29°16' W 094°41'1 0.0
2014-Oct-21 07:09N 29°16' W 094°42'0 0.0
2014-Oct-21 06:23N 29°16' W 094°42'  
2014-Oct-18 05:25N 27°35' W 083°01'1011.4
2014-Oct-18 04:33N 27°36' W 082°50'1010.3
2014-Oct-18 03:33N 27°38' W 082°38'1010.3
2014-Oct-18 02:33N 27°46' W 082°31'8 8.0
2014-Oct-18 01:33N 27°53' W 082°26'4 4.0
2014-Oct-18 00:33N 27°57' W 082°27'0 0.0
2014-Oct-17 23:33N 27°57' W 082°27'0 0.0
2014-Oct-17 22:32N 27°57' W 082°27'0 0.0
2014-Oct-17 21:32N 27°57' W 082°27'0 0.5
2014-Oct-17 20:32N 27°56' W 082°27'0 0.0
2014-Oct-17 19:32N 27°56' W 082°27'0 0.0
2014-Oct-17 18:32N 27°56' W 082°27'0 0.0
2014-Oct-17 17:32N 27°56' W 082°27'0 0.0
2014-Oct-17 16:32N 27°56' W 082°27'0 0.0
2014-Oct-17 15:32N 27°56' W 082°27'0 0.0
2014-Oct-17 14:32N 27°56' W 082°27'0 0.0
2014-Oct-17 13:32N 27°56' W 082°27'0 0.0
2014-Oct-17 12:32N 27°56' W 082°27'0 0.0
2014-Oct-17 11:32N 27°56' W 082°27'1 0.5
2014-Oct-17 10:31N 27°57' W 082°27'0 0.0
2014-Oct-17 09:31N 27°57' W 082°27'0 0.0
2014-Oct-17 08:31N 27°57' W 082°27'0 0.0
2014-Oct-17 07:28N 27°57' W 082°27'0 0.0
2014-Oct-17 06:31N 27°57' W 082°27'0 0.0
2014-Oct-17 05:31N 27°57' W 082°27'0 0.0
2014-Oct-17 04:31N 27°57' W 082°27'0 0.0
2014-Oct-17 03:31N 27°57' W 082°27'0 0.0
2014-Oct-17 02:33N 27°57' W 082°27'2 1.7
2014-Oct-17 01:33N 27°55' W 082°27'8 7.6
2014-Oct-17 00:33N 27°48' W 082°29'9 9.4
2014-Oct-16 23:33N 27°40' W 082°35'9 9.5
2014-Oct-16 22:33N 27°36' W 082°45'8 8.3
2014-Oct-16 21:33N 27°36' W 082°54'2 1.9
2014-Oct-16 20:28N 27°37' W 082°56'0 0.0
2014-Oct-16 19:31N 27°37' W 082°56'0 0.0
2014-Oct-16 18:31N 27°37' W 082°56'0 0.0
2014-Oct-16 17:31N 27°37' W 082°56'0 0.0
2014-Oct-16 16:28N 27°37' W 082°56'0 0.0
2014-Oct-16 15:31N 27°37' W 082°56'0 0.0
2014-Oct-16 14:28N 27°37' W 082°56'0 0.0
2014-Oct-16 13:28N 27°37' W 082°56'0 0.0
2014-Oct-16 12:31N 27°37' W 082°56'0 0.0
2014-Oct-16 11:31N 27°37' W 082°56'0 0.0
2014-Oct-16 10:31N 27°37' W 082°56'0 0.0
2014-Oct-16 09:31N 27°37' W 082°56'0 0.0
2014-Oct-16 08:28N 27°37' W 082°56'0 0.0
2014-Oct-16 07:31N 27°37' W 082°56'0 0.0
2014-Oct-16 06:31N 27°37' W 082°56'0 0.0
2014-Oct-16 05:31N 27°37' W 082°56'0 0.0
2014-Oct-16 04:31N 27°37' W 082°56'0 0.0
2014-Oct-16 03:31N 27°37' W 082°56'0 0.0
2014-Oct-16 02:31N 27°37' W 082°56'0 0.0
2014-Oct-16 01:10N 27°37' W 082°56'0 0.0
2014-Oct-16 00:28N 27°37' W 082°56'0 0.0
2014-Oct-15 23:31N 27°37' W 082°56'0 0.0
2014-Oct-15 22:31N 27°37' W 082°56'0 0.0
2014-Oct-15 21:31N 27°37' W 082°56'0 0.0
2014-Oct-15 20:31N 27°37' W 082°56'0 0.0
2014-Oct-15 19:31N 27°37' W 082°56'0 0.0
2014-Oct-15 18:16N 27°37' W 082°56'0 0.0
2014-Oct-15 17:34N 27°37' W 082°56'1 0.8
2014-Oct-15 16:33N 27°37' W 082°57'9 9.1
2014-Oct-15 15:33N 27°37' W 083°07'  
Track history (hours):
 
Tides and Currents Weather Stations Pressure Air Temp Water Temp Dewpoint Dewpoint Depression Visibility Wind Speed Wind Dir Waves Ship Positions

Osg Courageous

Owner: OSG Ship Management, Inc, Tampa, FL. More information available from US FCC via Universal Licensing System and Coast Guard Vessel Documentation Center.

Last reported at 2014-Oct-23 19:33 UTC. Time now 2014-Oct-25 07:54 UTC.
Position N 29°22' W 094°49'.

Length 187 m; draft 7 m.

Type: Tanker. MMSI: 367481310.

Date/timePositionNaut miles runAvg speedWind from/ knotsBaromVisibWave heightAir tempDewpointWater temp
2014-Oct-23 19:33N 29°22' W 094°49'5 4.9
2014-Oct-23 18:29N 29°22' W 094°55'0 0.0
2014-Oct-23 17:31N 29°22' W 094°55'0 0.0
2014-Oct-23 16:26N 29°22' W 094°55'0 0.0
2014-Oct-23 15:32N 29°22' W 094°55'0 0.0
2014-Oct-22 08:33N 29°22' W 094°55'2 1.9
2014-Oct-22 07:28N 29°23' W 094°53'1210.8
2014-Oct-22 06:21N 29°20' W 094°40'3 3.7
2014-Oct-22 05:29N 29°16' W 094°41'1 0.0
2014-Oct-21 07:09N 29°16' W 094°42'0 0.0
2014-Oct-21 06:23N 29°16' W 094°42'  
2014-Oct-18 05:25N 27°35' W 083°01'1011.4
2014-Oct-18 04:33N 27°36' W 082°50'1010.3
2014-Oct-18 03:33N 27°38' W 082°38'1010.3
2014-Oct-18 02:33N 27°46' W 082°31'8 8.0
2014-Oct-18 01:33N 27°53' W 082°26'4 4.0
2014-Oct-18 00:33N 27°57' W 082°27'0 0.0
2014-Oct-17 23:33N 27°57' W 082°27'0 0.0
2014-Oct-17 22:32N 27°57' W 082°27'0 0.0
2014-Oct-17 21:32N 27°57' W 082°27'0 0.5
2014-Oct-17 20:32N 27°56' W 082°27'0 0.0
2014-Oct-17 19:32N 27°56' W 082°27'0 0.0
2014-Oct-17 18:32N 27°56' W 082°27'0 0.0
2014-Oct-17 17:32N 27°56' W 082°27'0 0.0
2014-Oct-17 16:32N 27°56' W 082°27'0 0.0
2014-Oct-17 15:32N 27°56' W 082°27'0 0.0
2014-Oct-17 14:32N 27°56' W 082°27'0 0.0
2014-Oct-17 13:32N 27°56' W 082°27'0 0.0
2014-Oct-17 12:32N 27°56' W 082°27'0 0.0
2014-Oct-17 11:32N 27°56' W 082°27'1 0.5
2014-Oct-17 10:31N 27°57' W 082°27'0 0.0
2014-Oct-17 09:31N 27°57' W 082°27'0 0.0
2014-Oct-17 08:31N 27°57' W 082°27'0 0.0
2014-Oct-17 07:28N 27°57' W 082°27'0 0.0
2014-Oct-17 06:31N 27°57' W 082°27'0 0.0
2014-Oct-17 05:31N 27°57' W 082°27'0 0.0
2014-Oct-17 04:31N 27°57' W 082°27'0 0.0
2014-Oct-17 03:31N 27°57' W 082°27'0 0.0
2014-Oct-17 02:33N 27°57' W 082°27'2 1.7
2014-Oct-17 01:33N 27°55' W 082°27'8 7.6
2014-Oct-17 00:33N 27°48' W 082°29'9 9.4
2014-Oct-16 23:33N 27°40' W 082°35'9 9.5
2014-Oct-16 22:33N 27°36' W 082°45'8 8.3
2014-Oct-16 21:33N 27°36' W 082°54'2 1.9
2014-Oct-16 20:28N 27°37' W 082°56'0 0.0
2014-Oct-16 19:31N 27°37' W 082°56'0 0.0
2014-Oct-16 18:31N 27°37' W 082°56'0 0.0
2014-Oct-16 17:31N 27°37' W 082°56'0 0.0
2014-Oct-16 16:28N 27°37' W 082°56'0 0.0
2014-Oct-16 15:31N 27°37' W 082°56'0 0.0
2014-Oct-16 14:28N 27°37' W 082°56'0 0.0
2014-Oct-16 13:28N 27°37' W 082°56'0 0.0
2014-Oct-16 12:31N 27°37' W 082°56'0 0.0
2014-Oct-16 11:31N 27°37' W 082°56'0 0.0
2014-Oct-16 10:31N 27°37' W 082°56'0 0.0
2014-Oct-16 09:31N 27°37' W 082°56'0 0.0
2014-Oct-16 08:28N 27°37' W 082°56'0 0.0
2014-Oct-16 07:31N 27°37' W 082°56'0 0.0
2014-Oct-16 06:31N 27°37' W 082°56'0 0.0
2014-Oct-16 05:31N 27°37' W 082°56'0 0.0
2014-Oct-16 04:31N 27°37' W 082°56'0 0.0
2014-Oct-16 03:31N 27°37' W 082°56'0 0.0
2014-Oct-16 02:31N 27°37' W 082°56'0 0.0
2014-Oct-16 01:10N 27°37' W 082°56'0 0.0
2014-Oct-16 00:28N 27°37' W 082°56'0 0.0
2014-Oct-15 23:31N 27°37' W 082°56'0 0.0
2014-Oct-15 22:31N 27°37' W 082°56'0 0.0
2014-Oct-15 21:31N 27°37' W 082°56'0 0.0
2014-Oct-15 20:31N 27°37' W 082°56'0 0.0
2014-Oct-15 19:31N 27°37' W 082°56'0 0.0
2014-Oct-15 18:16N 27°37' W 082°56'0 0.0
2014-Oct-15 17:34N 27°37' W 082°56'1 0.8
2014-Oct-15 16:33N 27°37' W 082°57'9 9.1
2014-Oct-15 15:33N 27°37' W 083°07'  

Dump ship's entire track history